createdAt,value
2019-03-15T00:01:40.201Z,87.70
2019-03-15T00:04:08.611Z,87.70
2019-03-15T00:09:07.997Z,87.50
2019-03-15T00:11:36.403Z,87.70
2019-03-15T00:14:05.228Z,87.70
2019-03-15T00:16:33.620Z,87.60
2019-03-15T00:19:02.036Z,87.60
2019-03-15T00:21:30.427Z,87.70
2019-03-15T00:23:58.825Z,87.60
2019-03-15T00:26:27.237Z,87.70
2019-03-15T00:28:55.641Z,87.60
2019-03-15T00:31:24.033Z,87.60
2019-03-15T00:33:52.432Z,87.50
2019-03-15T00:36:21.075Z,87.50
2019-03-15T00:38:49.544Z,87.50
2019-03-15T00:41:17.936Z,87.60
2019-03-15T00:43:49.185Z,87.70
2019-03-15T00:46:16.460Z,87.70
2019-03-15T00:48:44.869Z,87.80
2019-03-15T00:51:13.268Z,88.10
2019-03-15T00:53:41.670Z,88.20
2019-03-15T00:56:10.071Z,88.50
2019-03-15T00:58:38.584Z,88.60
2019-03-15T01:01:06.973Z,88.70
2019-03-15T01:03:35.399Z,88.80
2019-03-15T01:06:03.780Z,88.80
2019-03-15T01:08:32.185Z,88.90
2019-03-15T01:11:00.588Z,88.90
2019-03-15T01:13:28.992Z,88.90
2019-03-15T01:15:57.398Z,88.90
2019-03-15T01:18:25.788Z,89.20
2019-03-15T01:20:54.196Z,89.60
2019-03-15T01:23:22.583Z,89.60
2019-03-15T01:25:50.997Z,89.60
2019-03-15T01:28:19.387Z,89.70
2019-03-15T01:30:47.797Z,89.70
2019-03-15T01:33:16.196Z,89.60
2019-03-15T01:40:40.744Z,89.70
2019-03-15T01:43:09.218Z,89.70
2019-03-15T01:45:37.622Z,89.80
2019-03-15T01:48:06.029Z,89.90
2019-03-15T01:50:34.479Z,90.00
2019-03-15T01:53:02.901Z,90.10
2019-03-15T01:57:59.380Z,90.10
2019-03-15T02:06:09.871Z,90.50
2019-03-15T02:08:38.273Z,90.50
2019-03-15T02:13:34.751Z,90.30
2019-03-15T02:18:31.216Z,90.20
2019-03-15T02:20:59.629Z,90.10
2019-03-15T02:23:28.118Z,90.10
2019-03-15T02:25:56.499Z,90.10
2019-03-15T02:28:24.897Z,90.10
2019-03-15T02:30:53.301Z,90.20
2019-03-15T02:33:21.694Z,90.20
2019-03-15T02:35:50.108Z,90.30
2019-03-15T02:38:18.503Z,90.30
2019-03-15T02:40:46.958Z,90.40
2019-03-15T02:45:43.487Z,90.30
2019-03-15T02:48:13.061Z,90.30
2019-03-15T02:50:42.171Z,90.40
2019-03-15T02:53:10.600Z,90.40
2019-03-15T02:55:38.997Z,90.40
2019-03-15T02:58:07.437Z,90.30
2019-03-15T03:00:35.839Z,90.30
2019-03-15T03:03:04.241Z,90.10
2019-03-15T03:05:34.355Z,90.10
2019-03-15T03:08:02.767Z,90.10
2019-03-15T03:10:31.171Z,90.00
2019-03-15T03:12:59.638Z,90.00
2019-03-15T03:15:28.091Z,90.10
2019-03-15T03:17:56.476Z,90.10
2019-03-15T03:20:24.889Z,90.10
2019-03-15T03:22:53.295Z,89.90
2019-03-15T03:25:21.692Z,89.90
2019-03-15T03:27:50.105Z,89.80
2019-03-15T03:30:18.524Z,89.90
2019-03-15T03:32:46.990Z,89.70
2019-03-15T03:35:15.395Z,89.80
2019-03-15T03:40:13.612Z,89.70
2019-03-15T03:42:42.021Z,89.90
2019-03-15T03:45:10.480Z,89.80
2019-03-15T03:50:09.133Z,90.00
2019-03-15T03:52:37.529Z,90.00
2019-03-15T03:55:06.800Z,89.90
2019-03-15T03:57:36.510Z,89.90
2019-03-15T04:00:08.782Z,89.80
2019-03-15T04:02:37.189Z,89.80
2019-03-15T04:05:06.369Z,89.70
2019-03-15T04:07:34.774Z,89.70
2019-03-15T04:10:05.657Z,89.60
2019-03-15T04:12:34.393Z,89.50
2019-03-15T04:15:03.831Z,89.50
2019-03-15T04:17:32.274Z,89.40
2019-03-15T04:20:00.652Z,89.40
2019-03-15T04:22:29.131Z,89.20
2019-03-15T04:24:57.529Z,89.40
2019-03-15T04:27:25.967Z,89.10
2019-03-15T04:29:54.364Z,89.10
2019-03-15T04:32:22.770Z,89.10
2019-03-15T04:37:22.635Z,89.10
2019-03-15T04:39:49.477Z,89.00
2019-03-15T04:42:17.880Z,89.00
2019-03-15T04:44:46.285Z,89.00
2019-03-15T04:47:14.730Z,89.00
2019-03-15T04:49:43.168Z,89.00
2019-03-15T04:52:30.936Z,89.00
2019-03-15T04:54:59.337Z,89.10
2019-03-15T04:57:27.784Z,88.70
2019-03-15T04:59:56.172Z,88.80
2019-03-15T05:02:24.571Z,88.80
2019-03-15T05:04:52.970Z,88.80
2019-03-15T05:07:21.364Z,88.70
2019-03-15T05:12:17.873Z,88.60
2019-03-15T05:14:46.293Z,88.60
2019-03-15T05:17:14.738Z,88.60
2019-03-15T05:19:43.151Z,88.60
2019-03-15T05:22:11.583Z,88.60
2019-03-15T05:24:39.981Z,88.60
2019-03-15T05:27:08.414Z,88.60
2019-03-15T05:29:36.807Z,88.40
2019-03-15T05:32:05.232Z,88.40
2019-03-15T05:34:33.636Z,88.50
2019-03-15T05:37:02.053Z,88.60
2019-03-15T05:39:30.548Z,88.40
2019-03-15T05:41:58.932Z,88.30
2019-03-15T05:44:27.433Z,88.30
2019-03-15T05:46:56.192Z,88.30
2019-03-15T05:49:24.637Z,88.30
2019-03-15T05:51:53.066Z,88.20
2019-03-15T05:54:21.466Z,88.00
2019-03-15T05:56:49.858Z,88.10
2019-03-15T06:01:46.343Z,88.40
2019-03-15T06:04:14.745Z,88.50
2019-03-15T06:06:43.168Z,88.50
2019-03-15T06:09:11.610Z,88.70
2019-03-15T06:11:40.002Z,88.90
2019-03-15T06:14:08.409Z,89.00
2019-03-15T06:16:36.807Z,89.00
2019-03-15T06:19:05.259Z,89.10
2019-03-15T06:21:33.683Z,89.20
2019-03-15T06:24:02.089Z,89.20
2019-03-15T06:26:30.544Z,89.20
2019-03-15T06:29:01.500Z,89.50
2019-03-15T06:31:29.140Z,89.60
2019-03-15T06:33:57.551Z,89.50
2019-03-15T06:38:54.065Z,89.40
2019-03-15T06:41:22.460Z,89.40
2019-03-15T06:43:50.896Z,89.10
2019-03-15T06:46:19.288Z,89.00
2019-03-15T06:48:47.696Z,89.20
2019-03-15T06:51:16.096Z,89.40
2019-03-15T06:53:47.687Z,89.40
2019-03-15T06:58:42.767Z,89.40
2019-03-15T07:01:11.195Z,89.20
2019-03-15T07:06:07.672Z,89.20
2019-03-15T07:08:36.090Z,89.10
2019-03-15T07:13:32.592Z,89.10
2019-03-15T07:16:01.022Z,89.20
2019-03-15T07:18:29.429Z,89.40
2019-03-15T07:20:57.859Z,89.40
2019-03-15T07:23:26.256Z,88.90
2019-03-15T07:25:54.648Z,88.80
2019-03-15T07:30:51.193Z,88.40
2019-03-15T07:33:19.597Z,88.40
2019-03-15T07:35:48.044Z,88.30
2019-03-15T07:38:16.435Z,88.30
2019-03-15T07:40:45.848Z,88.40
2019-03-15T07:43:14.469Z,88.20
2019-03-15T07:45:42.915Z,88.40
2019-03-15T07:48:21.861Z,88.30
2019-03-15T07:50:41.543Z,88.40
2019-03-15T07:55:38.054Z,88.70
2019-03-15T08:00:36.541Z,88.80
2019-03-15T08:03:04.982Z,89.00
2019-03-15T08:05:33.372Z,89.00
2019-03-15T08:08:01.779Z,89.10
2019-03-15T08:10:30.172Z,89.40
2019-03-15T08:12:58.583Z,89.20
2019-03-15T08:15:27.001Z,89.40
2019-03-15T08:17:55.401Z,89.60
2019-03-15T08:22:51.924Z,89.60
2019-03-15T08:27:48.565Z,89.60
2019-03-15T08:30:18.103Z,89.90
2019-03-15T08:32:46.504Z,90.00
2019-03-15T08:37:43.183Z,90.10
2019-03-15T08:40:13.257Z,90.20
2019-03-15T08:42:41.650Z,90.10
2019-03-15T08:50:18.872Z,90.50
2019-03-15T08:52:47.333Z,90.40
2019-03-15T08:55:15.730Z,90.30
2019-03-15T08:57:44.139Z,90.30
2019-03-15T09:00:14.774Z,90.30
2019-03-15T09:02:43.176Z,90.20
2019-03-15T09:05:13.111Z,90.30
2019-03-15T09:07:41.501Z,90.20
2019-03-15T09:10:21.933Z,90.00
2019-03-15T09:12:41.669Z,90.00
2019-03-15T09:15:11.421Z,90.00
2019-03-15T09:17:39.921Z,89.70
2019-03-15T09:22:37.999Z,89.80
2019-03-15T09:25:19.420Z,89.70
2019-03-15T09:27:45.245Z,89.70
2019-03-15T09:32:46.067Z,90.00
2019-03-15T09:35:14.481Z,89.90
2019-03-15T09:37:42.888Z,89.90
2019-03-15T09:40:13.600Z,89.80
2019-03-15T09:45:15.067Z,89.70
2019-03-15T09:47:43.507Z,89.60
2019-03-15T09:50:22.900Z,89.50
2019-03-15T09:52:43.379Z,89.40
2019-03-15T09:55:13.055Z,89.80
2019-03-15T09:57:41.484Z,89.80
2019-03-15T10:00:17.865Z,90.00
2019-03-15T10:02:46.322Z,89.80
2019-03-15T10:05:14.797Z,89.90
2019-03-15T10:07:44.039Z,90.00
2019-03-15T10:10:19.137Z,89.90
2019-03-15T10:12:47.889Z,89.80
2019-03-15T10:15:17.265Z,89.80
2019-03-15T10:17:45.756Z,89.80
2019-03-15T10:25:16.030Z,89.80
2019-03-15T10:27:44.439Z,89.50
2019-03-15T10:30:18.926Z,89.80
2019-03-15T10:32:47.362Z,89.80
2019-03-15T10:35:15.766Z,89.70
2019-03-15T10:40:15.547Z,89.40
2019-03-15T10:42:43.951Z,89.60
2019-03-15T10:45:12.420Z,89.60
2019-03-15T10:47:42.390Z,89.90
2019-03-15T10:52:40.292Z,90.10
2019-03-15T10:55:09.428Z,90.20
2019-03-15T10:57:37.838Z,90.30
2019-03-15T11:00:15.124Z,90.50
2019-03-15T11:02:43.529Z,90.50
2019-03-15T11:05:11.993Z,90.50
2019-03-15T11:07:40.435Z,90.60
2019-03-15T11:10:10.373Z,90.60
2019-03-15T11:12:38.782Z,90.40
2019-03-15T11:15:09.780Z,90.40
2019-03-15T11:17:38.196Z,90.40
2019-03-15T11:20:09.037Z,90.50
2019-03-15T11:22:37.548Z,90.60
2019-03-15T11:25:10.691Z,90.50
2019-03-15T11:27:39.092Z,90.60
2019-03-15T11:30:10.130Z,90.90
2019-03-15T11:32:38.537Z,90.90
2019-03-15T11:35:08.477Z,90.80
2019-03-15T11:37:36.876Z,90.50
2019-03-15T11:40:18.555Z,90.90
2019-03-15T11:42:45.616Z,90.90
2019-03-15T11:45:14.159Z,91.00
2019-03-15T11:48:01.402Z,91.10
2019-03-15T11:52:41.567Z,91.50
2019-03-15T11:55:10.609Z,91.60
2019-03-15T11:57:39.018Z,91.50
2019-03-15T12:00:17.611Z,91.60
2019-03-15T12:02:46.011Z,91.80
2019-03-15T12:05:14.952Z,92.00
2019-03-15T12:07:43.531Z,92.00
2019-03-15T12:10:17.909Z,92.20
2019-03-15T12:12:46.330Z,92.20
2019-03-15T12:15:16.933Z,92.40
2019-03-15T12:17:45.344Z,92.30
2019-03-15T12:20:13.984Z,92.20
2019-03-15T12:22:42.390Z,92.30
2019-03-15T12:27:39.392Z,92.10
2019-03-15T12:30:12.685Z,92.20
2019-03-15T12:35:14.128Z,92.40
2019-03-15T12:37:42.603Z,92.20
2019-03-15T12:40:15.393Z,92.10
2019-03-15T12:42:43.826Z,92.10
2019-03-15T12:45:13.363Z,91.90
2019-03-15T12:47:41.770Z,92.10
2019-03-15T12:50:11.661Z,92.00
2019-03-15T12:52:47.126Z,92.10
2019-03-15T12:55:12.375Z,92.10
2019-03-15T13:02:38.912Z,92.10
2019-03-15T13:05:07.314Z,92.10
2019-03-15T13:07:35.743Z,91.90
2019-03-15T13:10:06.132Z,91.90
2019-03-15T13:12:34.522Z,92.10
2019-03-15T13:15:02.994Z,92.30
2019-03-15T13:17:50.732Z,92.30
2019-03-15T13:20:19.136Z,92.40
2019-03-15T13:22:47.577Z,92.30
2019-03-15T13:25:16.048Z,92.20
2019-03-15T13:27:44.440Z,92.30
2019-03-15T13:30:14.851Z,92.30
2019-03-15T13:32:43.293Z,92.10
2019-03-15T13:35:12.238Z,92.00
2019-03-15T13:37:42.783Z,92.10
2019-03-15T13:40:12.701Z,91.90
2019-03-15T13:42:41.106Z,91.90
2019-03-15T13:45:12.008Z,91.80
2019-03-15T13:47:40.407Z,91.80
2019-03-15T13:50:11.823Z,92.00
2019-03-15T13:52:40.212Z,91.90
2019-03-15T13:55:08.729Z,91.80
2019-03-15T13:57:37.124Z,91.70
2019-03-15T14:00:11.373Z,91.70
2019-03-15T14:02:39.803Z,91.90
2019-03-15T14:05:08.276Z,92.00
2019-03-15T14:07:36.714Z,92.10
2019-03-15T14:12:34.988Z,92.10
2019-03-15T14:15:04.233Z,91.90
2019-03-15T14:17:32.629Z,92.00
2019-03-15T14:22:29.151Z,92.00
2019-03-15T14:24:57.557Z,92.20
2019-03-15T14:27:36.988Z,92.20
2019-03-15T14:29:56.148Z,92.30
2019-03-15T14:32:24.537Z,92.30
2019-03-15T14:34:52.960Z,92.30
2019-03-15T14:37:21.490Z,92.30
2019-03-15T14:42:18.143Z,92.50
2019-03-15T14:44:46.680Z,92.50
2019-03-15T14:47:15.200Z,92.40
2019-03-15T14:49:43.621Z,92.50
2019-03-15T14:52:12.019Z,92.30
2019-03-15T14:54:42.370Z,92.20
2019-03-15T14:57:10.551Z,92.30
2019-03-15T14:59:38.954Z,92.40
2019-03-15T15:02:07.358Z,92.30
2019-03-15T15:04:35.752Z,92.40
2019-03-15T15:09:32.315Z,92.60
2019-03-15T15:14:28.781Z,92.80
2019-03-15T15:16:57.192Z,93.00
2019-03-15T15:19:25.584Z,93.00
2019-03-15T15:24:22.064Z,93.20
2019-03-15T15:26:50.475Z,93.20
2019-03-15T15:29:21.937Z,93.20
2019-03-15T15:31:49.014Z,93.20
2019-03-15T15:34:17.400Z,93.30
2019-03-15T15:36:45.823Z,93.30
2019-03-15T15:41:42.308Z,93.30
2019-03-15T15:44:10.715Z,93.30
2019-03-15T15:49:08.460Z,93.30
2019-03-15T15:51:43.458Z,93.20
2019-03-15T15:54:13.559Z,93.30
2019-03-15T15:56:41.986Z,93.40
2019-03-15T15:59:10.394Z,93.40
2019-03-15T16:01:38.817Z,93.40
2019-03-15T16:04:07.279Z,93.40
2019-03-15T16:09:05.115Z,93.40
2019-03-15T16:11:33.625Z,93.40
2019-03-15T16:14:02.068Z,93.50
2019-03-15T16:16:30.511Z,93.60
2019-03-15T16:18:58.938Z,93.50
2019-03-15T16:26:23.493Z,93.50
2019-03-15T16:28:51.938Z,93.60
2019-03-15T16:31:20.418Z,93.60
2019-03-15T16:33:48.824Z,93.50
2019-03-15T16:36:17.266Z,93.50
2019-03-15T16:41:13.773Z,93.60
2019-03-15T16:46:10.252Z,93.50
2019-03-15T16:48:38.869Z,93.50
2019-03-15T16:51:18.979Z,93.50
2019-03-15T16:53:38.004Z,93.60
2019-03-15T16:58:44.814Z,93.60
2019-03-15T17:03:32.781Z,93.70
2019-03-15T17:06:01.176Z,93.70
2019-03-15T17:08:30.626Z,93.70
2019-03-15T17:10:59.021Z,93.70
2019-03-15T17:13:27.424Z,93.70
2019-03-15T17:15:55.898Z,93.70
2019-03-15T17:18:24.384Z,93.70
2019-03-15T17:23:20.844Z,93.60
2019-03-15T17:25:49.283Z,93.60
2019-03-15T17:28:17.713Z,93.70
2019-03-15T17:30:46.100Z,93.60
2019-03-15T17:33:14.514Z,93.70
2019-03-15T17:35:42.952Z,93.70
2019-03-15T17:38:11.395Z,93.70
2019-03-15T17:40:39.791Z,93.80
2019-03-15T17:45:36.738Z,94.00
2019-03-15T17:48:05.149Z,94.00
2019-03-15T17:50:33.549Z,94.00
2019-03-15T17:55:30.030Z,93.90
2019-03-15T17:57:58.442Z,94.00
2019-03-15T18:03:20.563Z,94.00
2019-03-15T18:05:40.527Z,93.90
2019-03-15T18:08:08.966Z,94.00
2019-03-15T18:10:37.356Z,94.00
2019-03-15T18:13:05.834Z,94.00
2019-03-15T18:15:34.248Z,93.90
2019-03-15T18:18:02.694Z,93.80
2019-03-15T18:22:59.210Z,93.70
2019-03-15T18:25:27.665Z,93.70
2019-03-15T18:30:24.206Z,93.70
2019-03-15T18:35:32.902Z,93.60
2019-03-15T18:37:50.938Z,93.60
2019-03-15T18:40:20.272Z,93.60
2019-03-15T18:45:18.800Z,93.40
2019-03-15T18:50:23.393Z,93.40
2019-03-15T18:52:51.868Z,93.40
2019-03-15T18:55:20.252Z,93.30
2019-03-15T19:00:20.775Z,93.30
2019-03-15T19:05:17.343Z,93.30
2019-03-15T19:07:45.816Z,93.20
2019-03-15T19:12:42.760Z,93.00
2019-03-15T19:17:40.316Z,92.90
2019-03-15T19:20:11.822Z,92.80
2019-03-15T19:25:09.944Z,92.80
2019-03-15T19:27:38.353Z,92.70
2019-03-15T19:30:12.215Z,92.60
2019-03-15T19:32:40.649Z,92.50
2019-03-15T19:35:10.116Z,92.40
2019-03-15T19:37:38.517Z,92.30
2019-03-15T19:42:45.514Z,92.20
2019-03-15T19:45:16.285Z,92.00
2019-03-15T19:50:14.948Z,91.80
2019-03-15T19:52:43.364Z,91.70
2019-03-15T19:55:16.006Z,91.70
2019-03-15T19:57:44.413Z,91.70
2019-03-15T20:02:47.515Z,91.40
2019-03-15T20:05:15.983Z,91.30
2019-03-15T20:07:44.518Z,91.20
2019-03-15T20:10:16.480Z,91.20
2019-03-15T20:12:44.608Z,91.10
2019-03-15T20:15:16.712Z,91.00
2019-03-15T20:17:45.150Z,90.90
2019-03-15T20:20:15.093Z,90.80
2019-03-15T20:22:43.495Z,90.80
2019-03-15T20:25:14.122Z,90.60
2019-03-15T20:27:42.529Z,90.60
2019-03-15T20:30:22.096Z,90.60
2019-03-15T20:32:47.196Z,90.50
2019-03-15T20:35:15.671Z,90.50
2019-03-15T20:37:44.066Z,90.30
2019-03-15T20:40:14.784Z,90.30
2019-03-15T20:42:43.218Z,90.20
2019-03-15T20:45:20.329Z,90.30
2019-03-15T20:47:48.725Z,90.20
2019-03-15T20:50:17.161Z,90.10
2019-03-15T20:52:45.595Z,90.00
2019-03-15T20:55:13.997Z,90.10
2019-03-15T20:57:42.517Z,90.00
2019-03-15T21:02:40.394Z,90.00
2019-03-15T21:05:09.552Z,89.90
2019-03-15T21:07:38.115Z,89.80
2019-03-15T21:12:36.323Z,89.80
2019-03-15T21:15:08.121Z,89.70
2019-03-15T21:20:11.924Z,89.60
2019-03-15T21:22:42.251Z,89.20
2019-03-15T21:27:52.595Z,89.50
2019-03-15T21:30:17.930Z,89.50
2019-03-15T21:32:46.335Z,89.20
2019-03-15T21:35:14.745Z,89.20
2019-03-15T21:40:17.313Z,89.20
2019-03-15T21:42:45.700Z,89.20
2019-03-15T21:45:14.288Z,89.20
2019-03-15T21:47:42.755Z,89.20
2019-03-15T21:50:22.835Z,89.20
2019-03-15T21:52:51.352Z,89.20
2019-03-15T21:55:19.878Z,89.20
2019-03-15T21:57:50.122Z,89.50
2019-03-15T22:00:21.657Z,89.50
2019-03-15T22:02:50.492Z,89.50
2019-03-15T22:05:18.942Z,89.60
2019-03-15T22:07:47.321Z,89.60
2019-03-15T22:12:46.926Z,89.60
2019-03-15T22:15:15.409Z,89.60
2019-03-15T22:17:43.937Z,89.60
2019-03-15T22:20:16.591Z,89.70
2019-03-15T22:22:45.025Z,89.70
2019-03-15T22:25:13.426Z,89.80
2019-03-15T22:27:41.828Z,89.80
2019-03-15T22:30:12.577Z,89.80
2019-03-15T22:35:09.191Z,89.90
2019-03-15T22:40:08.653Z,89.90
2019-03-15T22:42:37.508Z,90.00
2019-03-15T22:45:08.361Z,90.00
2019-03-15T22:47:36.765Z,89.90
2019-03-15T22:50:07.107Z,89.90
2019-03-15T22:52:35.538Z,90.00
2019-03-15T22:55:04.489Z,90.10
2019-03-15T22:57:32.898Z,90.00
2019-03-15T23:00:01.316Z,90.00
2019-03-15T23:02:29.708Z,90.00
2019-03-15T23:04:58.120Z,90.10
2019-03-15T23:07:26.516Z,89.90
2019-03-15T23:09:54.930Z,90.00
2019-03-15T23:12:23.333Z,90.10
2019-03-15T23:14:51.736Z,90.10
2019-03-15T23:19:48.289Z,90.10
2019-03-15T23:22:16.718Z,89.90
2019-03-15T23:27:13.225Z,89.90
2019-03-15T23:29:41.638Z,89.90
2019-03-15T23:37:06.214Z,89.60
2019-03-15T23:39:35.501Z,89.60
2019-03-15T23:42:03.904Z,89.20
2019-03-15T23:44:32.304Z,89.50
2019-03-15T23:47:00.698Z,89.20
2019-03-15T23:49:29.109Z,89.20
2019-03-15T23:56:53.644Z,89.20
2019-03-15T23:59:22.077Z,89.20
